Time;durP1;ratioP1;P1;durP2;ratioP2;P2;SDS_P1;SDS_P2;PMS_P1;PMS_P2;Temp;Humidity;BMP_temperature;BMP_pressure;BME280_temperature;BME280_humidity;BME280_pressure;Samples;Min_cycle;Max_cycle;Signal;HPM_P1;HPM_P2
2021/10/21 00:00:00;;;;;;;7.93;6.90;;;13.50;97.70;;;;;;2080110;28;20172;-65
2021/10/21 00:01:01;;;;;;;7.93;7.13;;;13.50;97.90;;;;;;2079922;28;20252;-64
2021/10/21 00:02:01;;;;;;;7.43;6.13;;;13.50;98.50;;;;;;2079965;28;20659;-64
2021/10/21 00:03:02;;;;;;;8.80;7.57;;;13.50;98.20;;;;;;2079980;28;20165;-65
2021/10/21 00:04:03;;;;;;;8.67;6.77;;;13.50;98.50;;;;;;2080157;28;20170;-64
2021/10/21 00:05:06;;;;;;;7.40;5.63;;;13.40;98.30;;;;;;2080127;28;20173;-65
2021/10/21 00:06:06;;;;;;;8.05;6.28;;;13.40;97.80;;;;;;2079959;28;20200;-64
2021/10/21 00:07:09;;;;;;;7.87;6.53;;;13.40;98.30;;;;;;2080240;28;20177;-64
2021/10/21 00:08:09;;;;;;;8.27;5.88;;;13.30;98.60;;;;;;2080042;28;20177;-64
2021/10/21 00:09:10;;;;;;;7.20;5.50;;;13.30;98.30;;;;;;2080188;28;20176;-64
2021/10/21 00:10:12;;;;;;;8.33;6.47;;;13.30;98.10;;;;;;2079892;28;20209;-65
2021/10/21 00:11:14;;;;;;;6.30;5.20;;;13.30;97.90;;;;;;2079269;28;20758;-64
2021/10/21 00:12:15;;;;;;;6.80;5.78;;;13.30;97.80;;;;;;2079452;28;20283;-63
2021/10/21 00:13:16;;;;;;;8.43;5.50;;;13.30;97.90;;;;;;2080092;28;20541;-65
2021/10/21 00:14:17;;;;;;;7.32;4.82;;;13.30;98.00;;;;;;2079827;28;20180;-65
2021/10/21 00:15:18;;;;;;;5.20;4.40;;;13.30;97.40;;;;;;2080119;28;20204;-65
2021/10/21 00:16:19;;;;;;;5.30;4.20;;;13.30;97.20;;;;;;2080088;28;20227;-64
2021/10/21 00:17:20;;;;;;;6.43;5.17;;;13.30;96.90;;;;;;2080079;28;20207;-65
2021/10/21 00:18:20;;;;;;;8.13;5.00;;;13.30;97.30;;;;;;2079997;28;20459;-65
2021/10/21 00:19:21;;;;;;;5.90;5.30;;;13.30;97.70;;;;;;2080008;28;20170;-64
2021/10/21 00:20:23;;;;;;;6.37;5.60;;;13.30;97.80;;;;;;2080058;28;20540;-65
2021/10/21 00:21:23;;;;;;;6.63;4.82;;;13.30;97.80;;;;;;2079334;28;20174;-64
2021/10/21 00:22:24;;;;;;;5.17;4.40;;;13.20;98.00;;;;;;2079286;28;20268;-65
2021/10/21 00:23:25;;;;;;;5.60;4.73;;;13.30;97.80;;;;;;2079287;28;20183;-64
2021/10/21 00:24:25;;;;;;;6.40;5.00;;;13.20;98.00;;;;;;2079340;28;20181;-65
2021/10/21 00:25:26;;;;;;;6.67;5.70;;;13.20;98.20;;;;;;2080230;28;20227;-64
2021/10/21 00:26:27;;;;;;;5.80;5.20;;;13.20;98.50;;;;;;2079902;28;20204;-65
2021/10/21 00:27:28;;;;;;;5.60;5.00;;;13.10;98.50;;;;;;2079936;28;20239;-65
2021/10/21 00:28:28;;;;;;;6.07;4.70;;;13.20;98.00;;;;;;2079989;28;20204;-65
2021/10/21 00:29:29;;;;;;;5.10;4.60;;;13.20;97.80;;;;;;2079872;28;20176;-65
2021/10/21 00:30:30;;;;;;;5.87;4.60;;;13.20;97.90;;;;;;2079852;28;20319;-64
2021/10/21 00:31:30;;;;;;;6.33;5.33;;;13.20;98.30;;;;;;2079599;28;20195;-64
2021/10/21 00:32:31;;;;;;;6.07;5.17;;;13.10;98.40;;;;;;2080022;28;20177;-65
2021/10/21 00:33:32;;;;;;;6.23;5.60;;;13.10;98.60;;;;;;2079946;28;20187;-65
2021/10/21 00:34:34;;;;;;;8.15;5.60;;;13.10;98.60;;;;;;2079954;28;20231;-65
2021/10/21 00:35:35;;;;;;;6.47;5.25;;;13.10;98.70;;;;;;2079063;28;20657;-65
2021/10/21 00:36:35;;;;;;;5.53;4.70;;;13.20;98.90;;;;;;2079389;28;20177;-65
2021/10/21 00:37:37;;;;;;;5.97;4.73;;;13.10;98.70;;;;;;2079775;28;20188;-65
2021/10/21 00:38:38;;;;;;;6.45;4.60;;;13.10;98.50;;;;;;2079980;28;20181;-64
2021/10/21 00:39:39;;;;;;;7.17;4.87;;;13.10;98.70;;;;;;2087356;28;20271;-65
2021/10/21 00:40:39;;;;;;;5.67;4.40;;;13.10;99.10;;;;;;2087306;28;20302;-65
2021/10/21 00:41:40;;;;;;;6.57;4.30;;;13.10;99.00;;;;;;2078844;28;20207;-64
2021/10/21 00:42:41;;;;;;;6.37;4.80;;;13.10;99.10;;;;;;2079940;28;20535;-65
2021/10/21 00:43:42;;;;;;;8.57;5.43;;;13.10;99.20;;;;;;2080024;28;20181;-65
2021/10/21 00:44:43;;;;;;;5.50;4.82;;;13.00;99.40;;;;;;2079804;28;20173;-65
2021/10/21 00:45:44;;;;;;;5.20;4.60;;;13.10;99.20;;;;;;2079796;28;20186;-64
2021/10/21 00:46:45;;;;;;;7.60;4.47;;;13.10;99.40;;;;;;2079656;28;20670;-64
2021/10/21 00:47:46;;;;;;;4.93;4.27;;;13.10;99.50;;;;;;2079829;28;20209;-65
2021/10/21 00:48:46;;;;;;;6.17;4.50;;;13.10;99.40;;;;;;2079807;28;20173;-64
2021/10/21 00:49:47;;;;;;;5.20;4.43;;;13.10;99.30;;;;;;2079670;28;20494;-65
2021/10/21 00:50:48;;;;;;;5.43;4.53;;;13.10;99.50;;;;;;2079575;28;20216;-64
2021/10/21 00:51:49;;;;;;;6.23;4.53;;;13.10;99.40;;;;;;2079376;28;20184;-65
2021/10/21 00:52:50;;;;;;;7.20;4.90;;;13.10;99.50;;;;;;2079755;28;20193;-65
2021/10/21 00:53:51;;;;;;;6.93;4.37;;;13.10;99.40;;;;;;2079579;28;20169;-64
2021/10/21 00:54:52;;;;;;;5.70;4.70;;;13.10;99.80;;;;;;2079193;28;20545;-65
2021/10/21 00:55:53;;;;;;;6.13;4.50;;;13.10;99.90;;;;;;2078987;28;20189;-65
2021/10/21 00:56:55;;;;;;;7.93;4.70;;;13.10;99.90;;;;;;2079050;28;20512;-65
2021/10/21 00:57:57;;;;;;;6.50;5.03;;;13.00;99.90;;;;;;2071054;28;20161;-65
2021/10/21 00:58:58;;;;;;;5.13;4.55;;;13.00;99.90;;;;;;2079148;28;20283;-65
2021/10/21 00:59:59;;;;;;;4.95;4.45;;;13.00;99.90;;;;;;2079038;28;20569;-65
2021/10/21 01:01:00;;;;;;;9.70;4.87;;;13.00;99.90;;;;;;2079729;28;20189;-65
2021/10/21 01:02:01;;;;;;;7.57;4.40;;;13.00;99.90;;;;;;2074867;28;20181;-64
2021/10/21 01:03:02;;;;;;;5.80;5.10;;;13.00;99.90;;;;;;2073458;28;20665;-64
2021/10/21 01:04:04;;;;;;;4.33;3.83;;;13.00;99.90;;;;;;2074224;28;20166;-65
2021/10/21 01:05:05;;;;;;;4.30;3.75;;;12.90;99.90;;;;;;2074196;28;20196;-65
2021/10/21 01:06:06;;;;;;;5.00;3.53;;;12.90;99.90;;;;;;2073568;28;20201;-65
2021/10/21 01:07:07;;;;;;;3.60;2.83;;;12.90;99.90;;;;;;2073728;28;20202;-64
2021/10/21 01:08:08;;;;;;;3.00;2.57;;;12.90;99.60;;;;;;2074170;28;20166;-65
2021/10/21 01:09:10;;;;;;;3.30;2.90;;;13.00;99.50;;;;;;2074304;28;20189;-65
2021/10/21 01:10:11;;;;;;;3.60;2.22;;;13.00;99.90;;;;;;2073459;28;20567;-64
2021/10/21 01:11:14;;;;;;;4.50;2.83;;;12.90;99.70;;;;;;2073281;28;20201;-65
2021/10/21 01:12:15;;;;;;;3.20;2.20;;;13.00;99.70;;;;;;2073470;28;20750;-64
2021/10/21 01:13:15;;;;;;;1.70;1.60;;;13.00;99.50;;;;;;2073392;28;20192;-64
2021/10/21 01:14:17;;;;;;;2.57;2.10;;;13.00;98.60;;;;;;2074259;28;20182;-65
2021/10/21 01:15:25;;;;;;;2.20;1.60;;;13.00;98.50;;;;;;2073556;28;20187;-64
2021/10/21 01:16:26;;;;;;;2.08;1.70;;;13.10;97.60;;;;;;2073649;28;20202;-65
2021/10/21 01:17:27;;;;;;;2.03;1.43;;;13.10;98.10;;;;;;2074224;28;20219;-65
2021/10/21 01:18:27;;;;;;;2.47;1.80;;;13.10;98.10;;;;;;2074103;28;20525;-65
2021/10/21 01:19:28;;;;;;;2.07;1.87;;;13.00;98.50;;;;;;2074075;28;20170;-65
2021/10/21 01:20:29;;;;;;;2.53;1.75;;;12.90;98.90;;;;;;2074191;28;20194;-64
2021/10/21 01:21:30;;;;;;;3.03;1.90;;;12.90;99.20;;;;;;2073783;28;20170;-65
2021/10/21 01:22:31;;;;;;;2.17;1.83;;;13.00;98.30;;;;;;2074102;28;20593;-65
2021/10/21 01:23:33;;;;;;;1.83;1.63;;;13.00;98.50;;;;;;2073954;28;20645;-64
2021/10/21 01:24:34;;;;;;;3.15;1.60;;;13.00;98.90;;;;;;2074111;28;20209;-65
2021/10/21 01:25:34;;;;;;;2.10;1.90;;;12.90;98.90;;;;;;2074116;28;20189;-65
2021/10/21 01:26:35;;;;;;;2.87;1.93;;;12.90;99.00;;;;;;2074068;28;20220;-65
2021/10/21 01:27:36;;;;;;;3.73;1.87;;;12.90;98.70;;;;;;2073996;28;20194;-65
2021/10/21 01:28:39;;;;;;;4.17;2.37;;;12.90;99.00;;;;;;2074071;28;20180;-64
2021/10/21 01:29:40;;;;;;;2.50;1.90;;;12.90;99.30;;;;;;2074050;28;20213;-65
2021/10/21 01:30:40;;;;;;;3.50;2.37;;;13.00;99.10;;;;;;2073873;28;20213;-65
2021/10/21 01:31:41;;;;;;;3.40;2.23;;;12.90;99.20;;;;;;2080427;28;20184;-65
2021/10/21 01:32:42;;;;;;;2.95;2.28;;;12.90;99.20;;;;;;2082070;28;20619;-66
2021/10/21 01:33:43;;;;;;;2.50;2.30;;;12.90;99.50;;;;;;2082133;28;20185;-65
2021/10/21 01:34:44;;;;;;;2.73;2.30;;;12.90;99.80;;;;;;2082044;28;20227;-65
2021/10/21 01:35:45;;;;;;;3.17;2.23;;;12.90;99.90;;;;;;2082022;28;20196;-65
2021/10/21 01:36:54;;;;;;;5.68;2.33;;;13.00;99.70;;;;;;2082059;28;20178;-65
2021/10/21 01:37:55;;;;;;;4.10;2.50;;;13.00;99.90;;;;;;2081328;28;20707;-65
2021/10/21 01:38:56;;;;;;;2.93;2.60;;;12.90;99.90;;;;;;2081411;28;20165;-65
2021/10/21 01:39:57;;;;;;;4.27;2.70;;;12.90;99.90;;;;;;2081964;28;20157;-65
2021/10/21 01:40:58;;;;;;;6.82;2.60;;;12.90;99.90;;;;;;2082097;28;20169;-65
2021/10/21 01:41:58;;;;;;;3.93;2.60;;;12.90;99.90;;;;;;2082040;28;20608;-65
2021/10/21 01:42:59;;;;;;;3.83;2.67;;;12.90;99.90;;;;;;2081502;28;20650;-65
2021/10/21 01:44:00;;;;;;;4.17;2.87;;;12.80;99.90;;;;;;2081476;28;20176;-65
2021/10/21 01:45:01;;;;;;;3.13;2.50;;;12.90;99.90;;;;;;2082112;28;20530;-65
2021/10/21 01:46:02;;;;;;;24.47;3.43;;;12.90;99.90;;;;;;2081924;28;20184;-65
2021/10/21 01:47:03;;;;;;;3.67;2.73;;;12.90;99.90;;;;;;2082115;28;20214;-65
2021/10/21 01:48:04;;;;;;;3.30;2.53;;;12.80;99.90;;;;;;2081439;28;20632;-65
2021/10/21 01:49:05;;;;;;;3.47;2.63;;;12.90;99.90;;;;;;2081517;28;20256;-65
2021/10/21 01:50:06;;;;;;;2.78;2.50;;;12.90;99.90;;;;;;2081635;28;20165;-64
2021/10/21 01:51:07;;;;;;;2.40;2.20;;;12.90;99.90;;;;;;2081757;28;20752;-65
2021/10/21 01:52:08;;;;;;;3.10;2.80;;;12.90;99.90;;;;;;2082002;28;20181;-65
2021/10/21 01:53:11;;;;;;;2.60;2.40;;;12.80;99.90;;;;;;2081514;28;20664;-65
2021/10/21 01:54:12;;;;;;;3.15;2.42;;;12.90;99.90;;;;;;2081380;28;20252;-65
2021/10/21 01:55:14;;;;;;;3.27;2.47;;;12.90;99.90;;;;;;2082008;28;20231;-65
2021/10/21 01:56:15;;;;;;;10.00;2.50;;;12.90;99.90;;;;;;2081129;28;20201;-65
2021/10/21 01:57:16;;;;;;;4.40;2.45;;;12.90;99.90;;;;;;2081452;28;20173;-64
2021/10/21 01:58:17;;;;;;;3.03;2.40;;;12.80;99.90;;;;;;2081915;28;20524;-65
2021/10/21 01:59:17;;;;;;;3.03;2.30;;;12.80;99.90;;;;;;2082103;28;20173;-65
2021/10/21 02:00:22;;;;;;;2.60;2.40;;;12.80;99.90;;;;;;2082004;28;20268;-65
2021/10/21 02:01:23;;;;;;;2.22;2.03;;;12.80;99.90;;;;;;2080893;28;20181;-65
2021/10/21 02:02:24;;;;;;;9.37;2.20;;;12.90;99.80;;;;;;2081098;28;20235;-65
2021/10/21 02:03:25;;;;;;;2.35;1.73;;;12.90;99.80;;;;;;2081807;28;20192;-65
2021/10/21 02:04:25;;;;;;;3.40;1.63;;;12.90;99.70;;;;;;2082060;28;20186;-65
2021/10/21 02:05:26;;;;;;;3.17;1.80;;;12.90;99.90;;;;;;2081800;28;20637;-65
2021/10/21 02:06:27;;;;;;;3.27;1.60;;;12.90;99.70;;;;;;2081919;28;20211;-65
2021/10/21 02:07:27;;;;;;;1.20;1.10;;;12.90;99.80;;;;;;2081939;28;20601;-65
2021/10/21 02:08:28;;;;;;;1.30;1.20;;;12.90;99.10;;;;;;2081883;28;20620;-65
2021/10/21 02:09:29;;;;;;;3.80;1.37;;;13.00;96.70;;;;;;2081937;28;20173;-65
2021/10/21 02:10:30;;;;;;;3.93;1.30;;;13.10;96.40;;;;;;2081673;28;20212;-66
2021/10/21 02:11:30;;;;;;;1.40;1.10;;;13.00;96.70;;;;;;2081596;28;20177;-65
2021/10/21 02:12:33;;;;;;;1.53;1.30;;;13.10;96.70;;;;;;2081894;28;20184;-65
2021/10/21 02:13:33;;;;;;;1.50;1.35;;;13.00;96.30;;;;;;2081061;28;20263;-65
2021/10/21 02:14:34;;;;;;;1.63;1.50;;;13.00;96.70;;;;;;2081669;28;20200;-64
2021/10/21 02:15:35;;;;;;;2.53;1.37;;;12.90;97.50;;;;;;2081828;28;20200;-65
2021/10/21 02:16:36;;;;;;;1.63;1.47;;;12.90;96.40;;;;;;2082008;28;20161;-65
2021/10/21 02:17:37;;;;;;;1.40;1.30;;;12.90;96.80;;;;;;2081700;28;20238;-65
2021/10/21 02:18:37;;;;;;;1.40;1.20;;;12.90;96.00;;;;;;2081337;28;20175;-65
2021/10/21 02:19:38;;;;;;;1.33;1.20;;;12.90;94.90;;;;;;2081291;28;20549;-65
2021/10/21 02:20:39;;;;;;;1.40;1.30;;;12.90;95.10;;;;;;2081710;28;20227;-65
2021/10/21 02:21:39;;;;;;;2.07;1.50;;;13.00;94.90;;;;;;2081513;28;20177;-65
2021/10/21 02:22:42;;;;;;;1.33;1.23;;;12.90;96.00;;;;;;2081687;28;20203;-65
2021/10/21 02:23:42;;;;;;;1.65;1.30;;;12.80;95.80;;;;;;2081727;28;20226;-65
2021/10/21 02:24:43;;;;;;;2.13;1.30;;;12.70;95.60;;;;;;2081782;28;20577;-66
2021/10/21 02:25:44;;;;;;;5.10;1.50;;;12.70;95.90;;;;;;2081688;28;20256;-65
2021/10/21 02:26:45;;;;;;;2.50;1.30;;;12.70;96.30;;;;;;2081708;28;20540;-65
2021/10/21 02:27:46;;;;;;;1.60;1.50;;;12.70;96.00;;;;;;2081727;28;20202;-65
2021/10/21 02:28:47;;;;;;;1.80;1.07;;;12.70;96.20;;;;;;2081769;28;20169;-65
2021/10/21 02:29:48;;;;;;;1.20;1.10;;;12.60;96.20;;;;;;2081777;28;20226;-65
2021/10/21 02:30:49;;;;;;;1.48;1.10;;;12.80;95.20;;;;;;2080847;28;20300;-68
2021/10/21 02:31:50;;;;;;;1.37;1.27;;;12.80;93.50;;;;;;2080993;28;20188;-65
2021/10/21 02:32:50;;;;;;;2.03;1.23;;;12.70;95.20;;;;;;2080322;28;20185;-64
2021/10/21 02:33:51;;;;;;;1.23;1.00;;;12.70;95.00;;;;;;2087179;28;20662;-65
2021/10/21 02:34:52;;;;;;;2.30;1.10;;;12.80;93.40;;;;;;2081553;28;20192;-65
2021/10/21 02:35:53;;;;;;;2.30;1.20;;;12.70;94.40;;;;;;2081435;28;20189;-64
2021/10/21 02:36:54;;;;;;;1.03;0.90;;;12.80;93.80;;;;;;2081799;28;20539;-64
2021/10/21 02:37:54;;;;;;;2.17;1.13;;;12.90;92.40;;;;;;2081692;28;20207;-64
2021/10/21 02:38:55;;;;;;;2.60;1.20;;;13.00;91.60;;;;;;2081526;28;20165;-64
2021/10/21 02:39:56;;;;;;;2.27;1.10;;;13.10;91.40;;;;;;2081669;28;20248;-64
2021/10/21 02:40:56;;;;;;;2.27;1.30;;;13.10;91.30;;;;;;2081541;28;20170;-63
2021/10/21 02:41:57;;;;;;;1.93;1.33;;;13.10;91.60;;;;;;2081354;28;20165;-63
2021/10/21 02:42:58;;;;;;;1.97;1.30;;;13.00;92.50;;;;;;2081586;28;20883;-64
2021/10/21 02:43:58;;;;;;;4.77;1.27;;;13.00;93.60;;;;;;2081428;28;20169;-63
2021/10/21 02:45:00;;;;;;;1.27;1.17;;;12.90;93.10;;;;;;2081603;28;20162;-63
2021/10/21 02:46:02;;;;;;;3.42;1.30;;;12.90;93.70;;;;;;2081762;28;20185;-64
2021/10/21 02:47:03;;;;;;;3.58;2.00;;;12.80;94.30;;;;;;2081641;28;20191;-64
2021/10/21 02:48:04;;;;;;;2.20;1.37;;;12.70;95.10;;;;;;2081516;28;20165;-64
2021/10/21 02:49:05;;;;;;;1.88;1.40;;;12.60;95.60;;;;;;2081756;28;20161;-63
2021/10/21 02:50:06;;;;;;;3.60;1.83;;;12.50;96.50;;;;;;2081340;28;20536;-63
2021/10/21 02:51:07;;;;;;;2.28;1.30;;;12.40;97.40;;;;;;2081315;28;20635;-64
2021/10/21 02:52:08;;;;;;;2.20;1.63;;;12.50;95.80;;;;;;2081448;28;20185;-64
2021/10/21 02:53:09;;;;;;;1.47;1.10;;;12.50;96.80;;;;;;2081614;28;20177;-63
2021/10/21 02:54:09;;;;;;;6.50;1.20;;;12.40;97.40;;;;;;2081276;28;20169;-62
2021/10/21 02:55:10;;;;;;;3.10;1.00;;;12.40;97.10;;;;;;2081418;28;20201;-64
2021/10/21 02:56:11;;;;;;;3.13;1.23;;;12.40;97.70;;;;;;2081441;28;20291;-64
2021/10/21 02:57:12;;;;;;;1.10;0.80;;;12.30;98.00;;;;;;2081577;28;20177;-64
2021/10/21 02:58:12;;;;;;;2.30;0.80;;;12.30;96.50;;;;;;2081386;28;20605;-67
2021/10/21 02:59:13;;;;;;;1.97;0.83;;;12.30;94.20;;;;;;2081624;28;20653;-63
2021/10/21 03:00:14;;;;;;;1.10;0.60;;;12.20;92.10;;;;;;2081583;28;20193;-64
2021/10/21 03:01:14;;;;;;;1.67;0.90;;;12.10;91.60;;;;;;2081296;28;20169;-64
2021/10/21 03:02:15;;;;;;;4.33;0.90;;;11.90;94.50;;;;;;2081458;28;20177;-63
2021/10/21 03:03:16;;;;;;;2.17;1.43;;;11.70;95.90;;;;;;2081500;28;20542;-63
2021/10/21 03:04:17;;;;;;;1.13;0.80;;;11.60;95.40;;;;;;2081530;28;20265;-63
2021/10/21 03:05:17;;;;;;;1.23;0.70;;;11.60;96.50;;;;;;2081688;28;20252;-63
2021/10/21 03:06:18;;;;;;;0.80;0.80;;;11.50;94.90;;;;;;2081368;28;20247;-63
2021/10/21 03:07:19;;;;;;;1.90;0.70;;;11.50;94.60;;;;;;2081602;28;20173;-63
2021/10/21 03:08:19;;;;;;;0.63;0.63;;;11.40;93.70;;;;;;2081563;28;20169;-63
2021/10/21 03:09:20;;;;;;;1.33;0.90;;;11.40;93.70;;;;;;2081583;28;20173;-63
2021/10/21 03:10:21;;;;;;;1.73;1.10;;;11.30;94.50;;;;;;2081330;28;20220;-63
2021/10/21 03:11:22;;;;;;;1.73;0.90;;;11.30;94.60;;;;;;2080853;28;20214;-62
2021/10/21 03:12:22;;;;;;;1.53;0.80;;;11.20;95.30;;;;;;2081202;28;20177;-62
2021/10/21 03:13:23;;;;;;;1.77;0.90;;;11.10;96.00;;;;;;2081155;28;20180;-63
2021/10/21 03:14:24;;;;;;;2.33;0.90;;;11.00;96.60;;;;;;2081245;28;20173;-61
2021/10/21 03:15:26;;;;;;;3.93;0.80;;;11.00;96.50;;;;;;2081111;28;20197;-63
2021/10/21 03:16:30;;;;;;;3.55;0.80;;;11.10;95.80;;;;;;2080476;28;20201;-62
2021/10/21 03:17:30;;;;;;;1.10;1.00;;;11.10;95.60;;;;;;2080503;28;20176;-63
2021/10/21 03:18:31;;;;;;;2.37;0.80;;;11.10;95.60;;;;;;2081354;28;20215;-62
2021/10/21 03:19:32;;;;;;;1.03;0.90;;;11.10;94.20;;;;;;2081080;28;20180;-63
2021/10/21 03:20:34;;;;;;;5.33;0.67;;;11.20;94.10;;;;;;2081187;28;20177;-62
2021/10/21 03:21:35;;;;;;;1.90;0.90;;;11.20;92.90;;;;;;2080889;28;20181;-62
2021/10/21 03:22:36;;;;;;;1.27;0.90;;;11.30;92.30;;;;;;2081193;28;20200;-63
2021/10/21 03:23:37;;;;;;;1.30;0.47;;;11.20;93.40;;;;;;2081135;28;20181;-63
2021/10/21 03:24:37;;;;;;;6.73;1.23;;;11.20;83.50;;;;;;2081210;28;20165;-62
2021/10/21 03:25:38;;;;;;;2.23;0.80;;;11.10;82.60;;;;;;2080874;28;20263;-62
2021/10/21 03:26:39;;;;;;;0.97;0.63;;;10.90;83.30;;;;;;2081171;28;20173;-62
2021/10/21 03:27:40;;;;;;;1.00;0.70;;;10.80;82.30;;;;;;2081031;28;20636;-62
2021/10/21 03:28:41;;;;;;;1.98;0.82;;;10.60;87.40;;;;;;2081130;28;20181;-62
2021/10/21 03:29:42;;;;;;;0.70;0.70;;;10.60;89.30;;;;;;2081137;28;20199;-62
2021/10/21 03:30:42;;;;;;;0.70;0.60;;;10.40;91.50;;;;;;2080973;28;20205;-62
2021/10/21 03:31:43;;;;;;;1.20;0.73;;;10.50;90.60;;;;;;2080838;28;20629;-62
2021/10/21 03:32:44;;;;;;;1.70;0.70;;;10.50;89.50;;;;;;2080727;28;20595;-62
2021/10/21 03:33:46;;;;;;;1.67;0.70;;;10.80;86.50;;;;;;2080952;28;20177;-63
2021/10/21 03:34:47;;;;;;;1.23;0.60;;;10.90;81.90;;;;;;2081100;28;20223;-62
2021/10/21 03:35:47;;;;;;;2.07;0.80;;;10.80;84.30;;;;;;2080847;28;20269;-62
2021/10/21 03:36:48;;;;;;;1.40;0.60;;;10.70;87.30;;;;;;2081079;28;20153;-62
2021/10/21 03:37:49;;;;;;;1.90;0.83;;;10.80;86.40;;;;;;2081037;28;20642;-62
2021/10/21 03:38:51;;;;;;;1.23;0.70;;;10.70;87.70;;;;;;2081155;28;20447;-62
2021/10/21 03:39:52;;;;;;;0.70;0.70;;;10.80;83.30;;;;;;2081172;28;20574;-62
2021/10/21 03:40:54;;;;;;;1.93;0.70;;;10.80;84.60;;;;;;2081077;28;20181;-63
2021/10/21 03:41:54;;;;;;;2.25;0.63;;;10.80;86.00;;;;;;2080884;28;20198;-62
2021/10/21 03:42:55;;;;;;;1.63;0.80;;;10.80;87.00;;;;;;2081037;28;20169;-63
2021/10/21 03:43:56;;;;;;;1.10;0.80;;;10.80;84.90;;;;;;2080405;28;20219;-62
2021/10/21 03:44:58;;;;;;;1.87;0.80;;;10.90;84.10;;;;;;2080445;28;20652;-63
2021/10/21 03:45:59;;;;;;;2.42;0.77;;;10.90;84.30;;;;;;2080815;28;20594;-64
2021/10/21 03:46:59;;;;;;;1.27;0.80;;;11.00;82.80;;;;;;2081069;28;20256;-63
2021/10/21 03:48:00;;;;;;;2.87;1.07;;;11.00;81.70;;;;;;2080930;28;20177;-62
2021/10/21 03:49:01;;;;;;;1.47;0.70;;;10.90;83.30;;;;;;2080971;28;20169;-64
2021/10/21 03:50:02;;;;;;;1.13;0.70;;;10.90;83.00;;;;;;2080845;28;20239;-65
2021/10/21 03:51:03;;;;;;;6.38;0.63;;;10.80;83.70;;;;;;2081044;28;20177;-62
2021/10/21 03:52:04;;;;;;;1.93;0.70;;;10.90;83.00;;;;;;2080996;28;20169;-63
2021/10/21 03:53:09;;;;;;;2.78;0.90;;;10.90;83.00;;;;;;2081001;28;20231;-63
2021/10/21 03:54:13;;;;;;;1.05;0.70;;;10.90;81.70;;;;;;2080926;28;20218;-63
2021/10/21 03:55:13;;;;;;;1.60;0.80;;;10.80;84.50;;;;;;2081124;28;20223;-63
2021/10/21 03:56:14;;;;;;;1.77;0.80;;;10.80;83.60;;;;;;2081171;28;20196;-63
2021/10/21 03:57:15;;;;;;;1.90;0.90;;;10.80;84.20;;;;;;2081394;28;20547;-63
2021/10/21 03:58:16;;;;;;;1.88;1.02;;;10.80;83.30;;;;;;2081060;28;20180;-63
2021/10/21 03:59:17;;;;;;;0.70;0.40;;;10.70;83.60;;;;;;2081034;28;20263;-63
2021/10/21 04:00:17;;;;;;;1.60;0.70;;;10.80;79.10;;;;;;2080963;28;20589;-62
2021/10/21 04:01:18;;;;;;;2.73;0.70;;;10.80;80.90;;;;;;2080865;28;20276;-65
2021/10/21 04:02:19;;;;;;;1.13;0.70;;;10.80;81.70;;;;;;2081042;28;20185;-63
2021/10/21 04:03:19;;;;;;;0.93;0.73;;;10.70;83.10;;;;;;2080917;28;20177;-63
2021/10/21 04:04:21;;;;;;;3.50;0.60;;;10.70;83.50;;;;;;2081171;28;20176;-63
2021/10/21 04:05:23;;;;;;;0.70;0.70;;;10.60;83.00;;;;;;2081137;28;20185;-62
2021/10/21 04:06:24;;;;;;;0.93;0.70;;;10.60;83.60;;;;;;2081157;28;20197;-62
2021/10/21 04:07:25;;;;;;;0.70;0.70;;;10.60;82.20;;;;;;2081011;28;20173;-62
2021/10/21 04:08:26;;;;;;;1.53;0.70;;;10.60;82.00;;;;;;2081197;28;20180;-62
2021/10/21 04:09:26;;;;;;;1.48;0.90;;;10.50;82.60;;;;;;2080713;28;20183;-62
2021/10/21 04:10:27;;;;;;;1.23;0.77;;;10.50;83.40;;;;;;2081068;28;20208;-61
2021/10/21 04:11:28;;;;;;;1.90;0.60;;;10.50;81.50;;;;;;2080818;28;20170;-62
2021/10/21 04:12:30;;;;;;;3.13;1.10;;;10.50;82.30;;;;;;2081062;28;20263;-63
2021/10/21 04:13:31;;;;;;;3.45;0.93;;;10.50;82.70;;;;;;2080931;28;20204;-63
2021/10/21 04:14:32;;;;;;;2.97;0.97;;;10.50;83.40;;;;;;2081030;28;20206;-63
2021/10/21 04:15:33;;;;;;;1.43;0.97;;;10.40;82.30;;;;;;2080913;28;20181;-63
2021/10/21 04:16:33;;;;;;;4.20;1.37;;;10.40;81.30;;;;;;2081005;28;20430;-62
2021/10/21 04:17:34;;;;;;;4.03;0.80;;;10.40;80.20;;;;;;2081041;28;20184;-63
2021/10/21 04:18:35;;;;;;;2.33;0.90;;;10.40;79.90;;;;;;2081029;28;20181;-62
2021/10/21 04:19:36;;;;;;;3.23;1.20;;;10.40;80.70;;;;;;2080976;28;20914;-63
2021/10/21 04:20:37;;;;;;;5.43;1.00;;;10.40;78.40;;;;;;2080960;28;20173;-62
2021/10/21 04:21:37;;;;;;;4.23;1.30;;;10.40;77.90;;;;;;2080720;28;20283;-62
2021/10/21 04:22:38;;;;;;;3.37;1.10;;;10.40;78.80;;;;;;2080929;28;20455;-63
2021/10/21 04:23:39;;;;;;;4.57;1.10;;;10.30;80.10;;;;;;2080891;28;20176;-61
2021/10/21 04:24:40;;;;;;;2.80;1.17;;;10.30;81.10;;;;;;2081100;28;20173;-64
2021/10/21 04:25:40;;;;;;;3.27;0.90;;;10.20;81.50;;;;;;2080876;28;20208;-62
2021/10/21 04:26:41;;;;;;;2.63;1.10;;;10.20;80.90;;;;;;2081039;28;20272;-62
2021/10/21 04:27:43;;;;;;;6.53;1.63;;;10.20;81.00;;;;;;2080276;28;20181;-63
2021/10/21 04:28:44;;;;;;;8.52;1.30;;;10.20;81.20;;;;;;2080547;28;20814;-63
2021/10/21 04:29:45;;;;;;;4.47;1.60;;;10.20;79.10;;;;;;2081108;28;20188;-62
2021/10/21 04:30:46;;;;;;;7.10;1.90;;;10.10;78.70;;;;;;2081002;28;20205;-63
2021/10/21 04:31:46;;;;;;;3.33;1.20;;;10.10;79.50;;;;;;2080736;28;20180;-63
2021/10/21 04:32:47;;;;;;;3.10;0.93;;;10.10;80.40;;;;;;2080950;28;20169;-63
2021/10/21 04:33:48;;;;;;;3.00;1.10;;;10.00;80.90;;;;;;2081019;28;20161;-63
2021/10/21 04:34:48;;;;;;;3.63;1.00;;;10.00;81.40;;;;;;2080949;28;20168;-63
2021/10/21 04:35:49;;;;;;;2.27;1.20;;;10.00;79.80;;;;;;2080880;28;20327;-64
2021/10/21 04:36:50;;;;;;;7.13;1.40;;;10.10;77.30;;;;;;2081008;28;20252;-63
2021/10/21 04:37:51;;;;;;;3.70;1.30;;;10.10;77.30;;;;;;2082540;28;20176;-63
2021/10/21 04:38:51;;;;;;;4.67;1.10;;;10.20;78.00;;;;;;2082456;28;20258;-62
2021/10/21 04:39:52;;;;;;;2.57;1.00;;;10.20;77.50;;;;;;2082453;28;20189;-62
2021/10/21 04:40:53;;;;;;;3.57;1.00;;;10.10;77.50;;;;;;2082528;28;20536;-63
2021/10/21 04:41:53;;;;;;;5.50;1.10;;;10.10;77.80;;;;;;2082234;28;20174;-61
2021/10/21 04:42:54;;;;;;;3.03;1.00;;;10.10;77.70;;;;;;2082380;28;20582;-62
2021/10/21 04:43:55;;;;;;;4.07;1.03;;;10.10;76.50;;;;;;2082457;28;20177;-63
2021/10/21 04:44:56;;;;;;;4.27;1.10;;;10.10;77.40;;;;;;2082300;28;20914;-62
2021/10/21 04:45:57;;;;;;;4.17;1.10;;;10.10;77.00;;;;;;2082213;28;20224;-63
2021/10/21 04:46:58;;;;;;;4.03;1.30;;;10.10;77.20;;;;;;2082186;28;20177;-62
2021/10/21 04:47:59;;;;;;;5.57;1.13;;;10.10;77.50;;;;;;2082299;28;20592;-63
2021/10/21 04:49:00;;;;;;;4.67;1.23;;;10.10;78.50;;;;;;2082307;28;20192;-62
2021/10/21 04:50:00;;;;;;;4.90;1.20;;;10.00;79.60;;;;;;2082266;28;20617;-63
2021/10/21 04:51:01;;;;;;;2.90;1.17;;;10.00;78.50;;;;;;2082121;28;20185;-63
2021/10/21 04:52:03;;;;;;;2.77;1.10;;;10.00;78.10;;;;;;2082291;28;20185;-62
2021/10/21 04:53:05;;;;;;;4.03;1.20;;;10.00;78.00;;;;;;2082141;28;20177;-63
2021/10/21 04:54:05;;;;;;;3.72;1.30;;;10.00;79.30;;;;;;2082393;28;20181;-63
2021/10/21 04:55:08;;;;;;;4.77;1.40;;;10.00;80.30;;;;;;2082229;28;20181;-63
2021/10/21 04:56:10;;;;;;;6.50;1.30;;;9.90;80.10;;;;;;2082318;28;20220;-62
2021/10/21 04:57:11;;;;;;;6.78;1.60;;;9.90;80.60;;;;;;2082311;28;20220;-62
2021/10/21 04:58:12;;;;;;;6.17;1.53;;;9.90;79.40;;;;;;2082212;28;20177;-63
2021/10/21 04:59:12;;;;;;;4.87;1.37;;;9.90;79.10;;;;;;2082258;28;20187;-63
2021/10/21 05:00:15;;;;;;;3.80;1.33;;;9.90;78.80;;;;;;2082292;28;20647;-63
2021/10/21 05:01:15;;;;;;;5.25;1.20;;;9.90;78.40;;;;;;2081440;28;20187;-62
2021/10/21 05:02:16;;;;;;;5.47;1.50;;;9.90;78.90;;;;;;2081700;28;20732;-63
2021/10/21 05:03:17;;;;;;;7.80;1.33;;;9.80;79.60;;;;;;2082084;28;20216;-63
2021/10/21 05:04:18;;;;;;;6.20;1.53;;;9.90;79.50;;;;;;2082323;28;20204;-63
2021/10/21 05:05:18;;;;;;;4.20;1.67;;;9.80;78.70;;;;;;2082230;28;20197;-64
2021/10/21 05:06:19;;;;;;;8.60;1.37;;;9.90;77.70;;;;;;2082151;28;20191;-62
2021/10/21 05:07:20;;;;;;;4.77;1.40;;;9.90;76.30;;;;;;2082185;28;20176;-63
2021/10/21 05:08:20;;;;;;;6.57;1.50;;;9.90;77.20;;;;;;2082241;28;20172;-62
2021/10/21 05:09:21;;;;;;;5.23;1.30;;;9.90;78.30;;;;;;2082130;28;20640;-62
2021/10/21 05:10:22;;;;;;;5.57;1.40;;;9.80;77.90;;;;;;2082280;28;20265;-63
2021/10/21 05:11:22;;;;;;;6.10;1.77;;;9.80;78.80;;;;;;2082027;28;20187;-62
2021/10/21 05:12:24;;;;;;;4.10;1.70;;;9.80;77.80;;;;;;2082238;28;20177;-63
2021/10/21 05:13:25;;;;;;;9.63;1.90;;;9.70;78.20;;;;;;2082218;28;20176;-62
2021/10/21 05:14:26;;;;;;;9.00;1.85;;;9.70;78.50;;;;;;2082262;28;20594;-63
2021/10/21 05:15:27;;;;;;;5.33;1.73;;;9.70;78.50;;;;;;2082245;28;20173;-62
2021/10/21 05:16:27;;;;;;;8.30;1.77;;;9.70;78.40;;;;;;2082132;28;20237;-63
2021/10/21 05:17:28;;;;;;;6.83;1.87;;;9.70;79.10;;;;;;2082170;28;20703;-63